sensor_id;sensor_type;location;lat;lon;timestamp;P1;durP1;ratioP1;P2;durP2;ratioP2
21334;SDS011;69435;52.670;13.544;2023-09-19T00:01:12;4.57;;;2.60;;
21334;SDS011;69435;52.670;13.544;2023-09-19T00:03:59;5.90;;;2.83;;
21334;SDS011;69435;52.670;13.544;2023-09-19T00:06:46;4.83;;;2.30;;
21334;SDS011;69435;52.670;13.544;2023-09-19T00:09:32;3.93;;;2.70;;
21334;SDS011;69435;52.670;13.544;2023-09-19T00:12:22;3.57;;;2.20;;
21334;SDS011;69435;52.670;13.544;2023-09-19T00:15:08;2.30;;;2.03;;
21334;SDS011;69435;52.670;13.544;2023-09-19T00:17:55;2.50;;;2.30;;
21334;SDS011;69435;52.670;13.544;2023-09-19T00:20:42;9.83;;;2.70;;
21334;SDS011;69435;52.670;13.544;2023-09-19T00:23:28;3.37;;;2.40;;
21334;SDS011;69435;52.670;13.544;2023-09-19T00:26:14;2.60;;;2.40;;
21334;SDS011;69435;52.670;13.544;2023-09-19T00:29:00;6.47;;;2.70;;
21334;SDS011;69435;52.670;13.544;2023-09-19T00:31:53;6.20;;;2.67;;
21334;SDS011;69435;52.670;13.544;2023-09-19T00:34:39;3.70;;;2.73;;
21334;SDS011;69435;52.670;13.544;2023-09-19T00:37:25;3.20;;;2.77;;
21334;SDS011;69435;52.670;13.544;2023-09-19T00:40:11;2.80;;;2.60;;
21334;SDS011;69435;52.670;13.544;2023-09-19T00:42:57;5.20;;;2.37;;
21334;SDS011;69435;52.670;13.544;2023-09-19T00:45:48;4.60;;;2.50;;
21334;SDS011;69435;52.670;13.544;2023-09-19T00:48:38;4.60;;;2.33;;
21334;SDS011;69435;52.670;13.544;2023-09-19T00:51:29;3.60;;;2.50;;
21334;SDS011;69435;52.670;13.544;2023-09-19T00:54:15;4.07;;;2.87;;
21334;SDS011;69435;52.670;13.544;2023-09-19T00:57:03;3.37;;;2.50;;
21334;SDS011;69435;52.670;13.544;2023-09-19T00:59:50;2.77;;;2.40;;
21334;SDS011;69435;52.670;13.544;2023-09-19T01:02:39;5.20;;;2.63;;
21334;SDS011;69435;52.670;13.544;2023-09-19T01:05:30;5.17;;;2.50;;
21334;SDS011;69435;52.670;13.544;2023-09-19T01:08:16;3.13;;;2.70;;
21334;SDS011;69435;52.670;13.544;2023-09-19T01:11:20;5.73;;;2.53;;
21334;SDS011;69435;52.670;13.544;2023-09-19T01:17:27;5.87;;;2.13;;
21334;SDS011;69435;52.670;13.544;2023-09-19T01:23:42;2.70;;;2.50;;
21334;SDS011;69435;52.670;13.544;2023-09-19T01:30:14;3.83;;;3.40;;
21334;SDS011;69435;52.670;13.544;2023-09-19T01:33:10;4.20;;;2.50;;
21334;SDS011;69435;52.670;13.544;2023-09-19T01:35:56;3.13;;;2.50;;
21334;SDS011;69435;52.670;13.544;2023-09-19T01:38:43;5.33;;;2.40;;
21334;SDS011;69435;52.670;13.544;2023-09-19T01:42:12;2.80;;;2.20;;
21334;SDS011;69435;52.670;13.544;2023-09-19T01:44:57;4.30;;;2.30;;
21334;SDS011;69435;52.670;13.544;2023-09-19T01:47:55;2.67;;;2.47;;
21334;SDS011;69435;52.670;13.544;2023-09-19T01:50:55;3.53;;;2.80;;
21334;SDS011;69435;52.670;13.544;2023-09-19T01:54:00;3.00;;;2.40;;
21334;SDS011;69435;52.670;13.544;2023-09-19T01:59:54;2.80;;;2.60;;
21334;SDS011;69435;52.670;13.544;2023-09-19T02:02:51;2.30;;;2.20;;
21334;SDS011;69435;52.670;13.544;2023-09-19T02:05:41;4.37;;;2.63;;
21334;SDS011;69435;52.670;13.544;2023-09-19T02:08:34;3.40;;;2.60;;
21334;SDS011;69435;52.670;13.544;2023-09-19T02:11:20;3.23;;;2.30;;
21334;SDS011;69435;52.670;13.544;2023-09-19T02:14:06;2.50;;;2.30;;
21334;SDS011;69435;52.670;13.544;2023-09-19T02:16:53;6.23;;;2.20;;
21334;SDS011;69435;52.670;13.544;2023-09-19T02:19:39;2.70;;;2.40;;
21334;SDS011;69435;52.670;13.544;2023-09-19T02:22:26;2.27;;;1.83;;
21334;SDS011;69435;52.670;13.544;2023-09-19T02:25:13;2.80;;;2.57;;
21334;SDS011;69435;52.670;13.544;2023-09-19T02:27:59;2.27;;;2.17;;
21334;SDS011;69435;52.670;13.544;2023-09-19T02:30:49;3.73;;;2.03;;
21334;SDS011;69435;52.670;13.544;2023-09-19T02:33:35;3.10;;;2.30;;
21334;SDS011;69435;52.670;13.544;2023-09-19T02:36:22;4.23;;;2.40;;
21334;SDS011;69435;52.670;13.544;2023-09-19T02:39:08;5.10;;;2.17;;
21334;SDS011;69435;52.670;13.544;2023-09-19T02:41:56;4.47;;;2.60;;
21334;SDS011;69435;52.670;13.544;2023-09-19T02:44:42;5.07;;;2.47;;
21334;SDS011;69435;52.670;13.544;2023-09-19T02:47:28;5.10;;;2.57;;
21334;SDS011;69435;52.670;13.544;2023-09-19T02:50:16;3.63;;;2.00;;
21334;SDS011;69435;52.670;13.544;2023-09-19T02:53:02;4.10;;;2.13;;
21334;SDS011;69435;52.670;13.544;2023-09-19T02:55:50;2.70;;;2.20;;
21334;SDS011;69435;52.670;13.544;2023-09-19T02:58:39;2.37;;;2.17;;
21334;SDS011;69435;52.670;13.544;2023-09-19T03:01:26;3.30;;;2.30;;
21334;SDS011;69435;52.670;13.544;2023-09-19T03:04:13;2.73;;;2.47;;
21334;SDS011;69435;52.670;13.544;2023-09-19T03:07:05;3.43;;;2.67;;
21334;SDS011;69435;52.670;13.544;2023-09-19T03:09:51;3.67;;;2.40;;
21334;SDS011;69435;52.670;13.544;2023-09-19T03:12:38;5.87;;;2.80;;
21334;SDS011;69435;52.670;13.544;2023-09-19T03:15:25;2.60;;;2.40;;
21334;SDS011;69435;52.670;13.544;2023-09-19T03:18:11;3.03;;;2.60;;
21334;SDS011;69435;52.670;13.544;2023-09-19T03:20:58;3.10;;;2.87;;
21334;SDS011;69435;52.670;13.544;2023-09-19T03:23:46;3.60;;;2.70;;
21334;SDS011;69435;52.670;13.544;2023-09-19T03:26:33;2.73;;;2.17;;
21334;SDS011;69435;52.670;13.544;2023-09-19T03:29:19;4.03;;;3.00;;
21334;SDS011;69435;52.670;13.544;2023-09-19T03:32:05;5.80;;;2.70;;
21334;SDS011;69435;52.670;13.544;2023-09-19T03:34:51;4.93;;;2.93;;
21334;SDS011;69435;52.670;13.544;2023-09-19T03:37:37;5.03;;;3.03;;
21334;SDS011;69435;52.670;13.544;2023-09-19T03:40:24;4.00;;;2.53;;
21334;SDS011;69435;52.670;13.544;2023-09-19T03:43:10;4.77;;;2.83;;
21334;SDS011;69435;52.670;13.544;2023-09-19T03:45:56;2.73;;;2.40;;
21334;SDS011;69435;52.670;13.544;2023-09-19T03:48:47;2.37;;;2.17;;
21334;SDS011;69435;52.670;13.544;2023-09-19T03:51:33;2.40;;;2.20;;
21334;SDS011;69435;52.670;13.544;2023-09-19T03:54:19;2.70;;;1.97;;
21334;SDS011;69435;52.670;13.544;2023-09-19T03:57:05;2.63;;;2.30;;
21334;SDS011;69435;52.670;13.544;2023-09-19T03:59:52;3.03;;;1.80;;
21334;SDS011;69435;52.670;13.544;2023-09-19T04:02:38;1.80;;;1.70;;
21334;SDS011;69435;52.670;13.544;2023-09-19T04:05:25;1.87;;;1.73;;
21334;SDS011;69435;52.670;13.544;2023-09-19T04:08:11;3.80;;;1.93;;
21334;SDS011;69435;52.670;13.544;2023-09-19T04:10:57;1.80;;;1.67;;
21334;SDS011;69435;52.670;13.544;2023-09-19T04:13:43;1.87;;;1.77;;
21334;SDS011;69435;52.670;13.544;2023-09-19T04:16:28;6.07;;;1.90;;
21334;SDS011;69435;52.670;13.544;2023-09-19T04:19:14;2.77;;;2.10;;
21334;SDS011;69435;52.670;13.544;2023-09-19T04:22:00;2.47;;;1.67;;
21334;SDS011;69435;52.670;13.544;2023-09-19T04:24:46;4.40;;;1.97;;
21334;SDS011;69435;52.670;13.544;2023-09-19T04:27:32;1.70;;;1.60;;
21334;SDS011;69435;52.670;13.544;2023-09-19T04:30:19;2.90;;;2.03;;
21334;SDS011;69435;52.670;13.544;2023-09-19T04:33:06;1.70;;;1.60;;
21334;SDS011;69435;52.670;13.544;2023-09-19T04:35:53;2.20;;;1.47;;
21334;SDS011;69435;52.670;13.544;2023-09-19T04:38:39;2.40;;;1.73;;
21334;SDS011;69435;52.670;13.544;2023-09-19T04:41:25;2.57;;;1.87;;
21334;SDS011;69435;52.670;13.544;2023-09-19T04:44:11;2.60;;;1.60;;
21334;SDS011;69435;52.670;13.544;2023-09-19T04:46:59;2.60;;;2.00;;
21334;SDS011;69435;52.670;13.544;2023-09-19T04:49:45;3.93;;;2.20;;
21334;SDS011;69435;52.670;13.544;2023-09-19T04:52:31;2.23;;;1.80;;
21334;SDS011;69435;52.670;13.544;2023-09-19T04:55:18;1.77;;;1.67;;
21334;SDS011;69435;52.670;13.544;2023-09-19T04:58:05;2.40;;;1.90;;
21334;SDS011;69435;52.670;13.544;2023-09-19T05:00:51;4.83;;;1.97;;
21334;SDS011;69435;52.670;13.544;2023-09-19T05:03:37;1.90;;;1.80;;
21334;SDS011;69435;52.670;13.544;2023-09-19T05:06:23;1.80;;;1.70;;
21334;SDS011;69435;52.670;13.544;2023-09-19T05:09:11;3.67;;;1.97;;
21334;SDS011;69435;52.670;13.544;2023-09-19T05:11:58;5.10;;;2.10;;
21334;SDS011;69435;52.670;13.544;2023-09-19T05:14:44;2.20;;;2.10;;
21334;SDS011;69435;52.670;13.544;2023-09-19T05:17:30;2.23;;;2.10;;
21334;SDS011;69435;52.670;13.544;2023-09-19T05:20:16;4.87;;;2.50;;
21334;SDS011;69435;52.670;13.544;2023-09-19T05:23:16;2.30;;;2.10;;
21334;SDS011;69435;52.670;13.544;2023-09-19T05:26:02;2.27;;;2.17;;
21334;SDS011;69435;52.670;13.544;2023-09-19T05:28:49;2.17;;;2.07;;
21334;SDS011;69435;52.670;13.544;2023-09-19T05:31:35;3.23;;;2.50;;
21334;SDS011;69435;52.670;13.544;2023-09-19T05:34:26;4.20;;;2.20;;
21334;SDS011;69435;52.670;13.544;2023-09-19T05:37:15;2.37;;;2.17;;
21334;SDS011;69435;52.670;13.544;2023-09-19T05:40:01;2.50;;;2.30;;
21334;SDS011;69435;52.670;13.544;2023-09-19T05:42:52;4.43;;;2.17;;
21334;SDS011;69435;52.670;13.544;2023-09-19T05:45:38;2.33;;;2.07;;
21334;SDS011;69435;52.670;13.544;2023-09-19T05:48:26;2.30;;;2.10;;
21334;SDS011;69435;52.670;13.544;2023-09-19T05:51:12;2.13;;;1.90;;
21334;SDS011;69435;52.670;13.544;2023-09-19T05:53:58;3.23;;;2.30;;
21334;SDS011;69435;52.670;13.544;2023-09-19T05:56:44;2.70;;;2.10;;
21334;SDS011;69435;52.670;13.544;2023-09-19T05:59:32;2.70;;;2.00;;
21334;SDS011;69435;52.670;13.544;2023-09-19T06:02:18;7.00;;;2.23;;
21334;SDS011;69435;52.670;13.544;2023-09-19T06:05:05;3.60;;;2.30;;
21334;SDS011;69435;52.670;13.544;2023-09-19T06:07:55;3.17;;;2.43;;
21334;SDS011;69435;52.670;13.544;2023-09-19T06:10:45;2.93;;;2.60;;
21334;SDS011;69435;52.670;13.544;2023-09-19T06:13:32;4.23;;;2.53;;
21334;SDS011;69435;52.670;13.544;2023-09-19T06:16:18;2.87;;;2.13;;
21334;SDS011;69435;52.670;13.544;2023-09-19T06:19:05;6.83;;;2.07;;
21334;SDS011;69435;52.670;13.544;2023-09-19T06:21:54;2.63;;;2.00;;
21334;SDS011;69435;52.670;13.544;2023-09-19T06:24:40;2.60;;;2.13;;
21334;SDS011;69435;52.670;13.544;2023-09-19T06:27:26;1.93;;;1.73;;
21334;SDS011;69435;52.670;13.544;2023-09-19T06:30:13;2.13;;;1.93;;
21334;SDS011;69435;52.670;13.544;2023-09-19T06:33:00;3.80;;;2.23;;
21334;SDS011;69435;52.670;13.544;2023-09-19T06:35:46;4.83;;;1.97;;
21334;SDS011;69435;52.670;13.544;2023-09-19T06:38:33;2.30;;;1.73;;
21334;SDS011;69435;52.670;13.544;2023-09-19T06:41:21;3.07;;;2.00;;
21334;SDS011;69435;52.670;13.544;2023-09-19T06:44:10;1.83;;;1.70;;
21334;SDS011;69435;52.670;13.544;2023-09-19T06:46:56;2.83;;;1.90;;
21334;SDS011;69435;52.670;13.544;2023-09-19T06:49:42;2.13;;;1.93;;
21334;SDS011;69435;52.670;13.544;2023-09-19T06:52:29;2.20;;;1.97;;
21334;SDS011;69435;52.670;13.544;2023-09-19T06:55:16;3.33;;;2.00;;
21334;SDS011;69435;52.670;13.544;2023-09-19T06:58:05;1.97;;;1.70;;
21334;SDS011;69435;52.670;13.544;2023-09-19T07:00:51;2.70;;;1.70;;
21334;SDS011;69435;52.670;13.544;2023-09-19T07:03:37;1.53;;;1.43;;
21334;SDS011;69435;52.670;13.544;2023-09-19T07:06:23;2.97;;;1.73;;
21334;SDS011;69435;52.670;13.544;2023-09-19T07:09:09;4.60;;;1.60;;
21334;SDS011;69435;52.670;13.544;2023-09-19T07:11:55;4.50;;;1.63;;
21334;SDS011;69435;52.670;13.544;2023-09-19T07:14:41;2.73;;;1.67;;
21334;SDS011;69435;52.670;13.544;2023-09-19T07:17:27;3.13;;;1.80;;
21334;SDS011;69435;52.670;13.544;2023-09-19T07:20:15;3.27;;;1.97;;
21334;SDS011;69435;52.670;13.544;2023-09-19T07:23:01;3.00;;;2.10;;
21334;SDS011;69435;52.670;13.544;2023-09-19T07:25:47;3.73;;;1.90;;
21334;SDS011;69435;52.670;13.544;2023-09-19T07:28:34;4.33;;;1.60;;
21334;SDS011;69435;52.670;13.544;2023-09-19T07:31:21;2.33;;;2.10;;
21334;SDS011;69435;52.670;13.544;2023-09-19T07:34:08;3.17;;;1.97;;
21334;SDS011;69435;52.670;13.544;2023-09-19T07:36:55;1.80;;;1.70;;
21334;SDS011;69435;52.670;13.544;2023-09-19T07:39:42;3.07;;;2.10;;
21334;SDS011;69435;52.670;13.544;2023-09-19T07:42:28;3.23;;;1.90;;
21334;SDS011;69435;52.670;13.544;2023-09-19T07:45:14;2.93;;;1.77;;
21334;SDS011;69435;52.670;13.544;2023-09-19T07:48:02;2.60;;;1.60;;
21334;SDS011;69435;52.670;13.544;2023-09-19T07:50:51;3.03;;;1.83;;
21334;SDS011;69435;52.670;13.544;2023-09-19T07:53:37;4.10;;;1.60;;
21334;SDS011;69435;52.670;13.544;2023-09-19T07:56:23;1.73;;;1.50;;
21334;SDS011;69435;52.670;13.544;2023-09-19T07:59:11;2.33;;;1.97;;
21334;SDS011;69435;52.670;13.544;2023-09-19T08:01:57;3.50;;;2.00;;
21334;SDS011;69435;52.670;13.544;2023-09-19T08:04:43;2.50;;;1.97;;
21334;SDS011;69435;52.670;13.544;2023-09-19T08:07:34;3.20;;;1.87;;
21334;SDS011;69435;52.670;13.544;2023-09-19T08:10:21;1.90;;;1.80;;
21334;SDS011;69435;52.670;13.544;2023-09-19T08:13:07;1.53;;;1.43;;
21334;SDS011;69435;52.670;13.544;2023-09-19T08:15:59;3.37;;;2.00;;
21334;SDS011;69435;52.670;13.544;2023-09-19T08:18:48;1.53;;;1.30;;
21334;SDS011;69435;52.670;13.544;2023-09-19T08:21:38;2.17;;;1.80;;
21334;SDS011;69435;52.670;13.544;2023-09-19T08:24:25;3.07;;;1.80;;
21334;SDS011;69435;52.670;13.544;2023-09-19T08:27:13;2.03;;;1.80;;
21334;SDS011;69435;52.670;13.544;2023-09-19T08:30:00;2.40;;;1.70;;
21334;SDS011;69435;52.670;13.544;2023-09-19T08:32:47;4.07;;;2.10;;
21334;SDS011;69435;52.670;13.544;2023-09-19T08:35:35;2.27;;;1.93;;
21334;SDS011;69435;52.670;13.544;2023-09-19T08:38:21;2.93;;;1.87;;
21334;SDS011;69435;52.670;13.544;2023-09-19T08:41:07;2.00;;;1.60;;
21334;SDS011;69435;52.670;13.544;2023-09-19T08:43:53;3.93;;;1.90;;
21334;SDS011;69435;52.670;13.544;2023-09-19T08:46:47;2.37;;;1.90;;
21334;SDS011;69435;52.670;13.544;2023-09-19T08:49:40;1.97;;;1.83;;
21334;SDS011;69435;52.670;13.544;2023-09-19T08:53:01;4.57;;;1.93;;
21334;SDS011;69435;52.670;13.544;2023-09-19T08:55:56;1.95;;;1.85;;
21334;SDS011;69435;52.670;13.544;2023-09-19T08:58:46;1.95;;;1.85;;
21334;SDS011;69435;52.670;13.544;2023-09-19T09:01:39;3.83;;;2.22;;
21334;SDS011;69435;52.670;13.544;2023-09-19T09:04:26;3.28;;;2.10;;
21334;SDS011;69435;52.670;13.544;2023-09-19T09:07:13;2.13;;;1.90;;
21334;SDS011;69435;52.670;13.544;2023-09-19T09:10:02;1.95;;;1.83;;
21334;SDS011;69435;52.670;13.544;2023-09-19T09:12:52;3.63;;;2.05;;
21334;SDS011;69435;52.670;13.544;2023-09-19T09:15:40;2.17;;;1.70;;
21334;SDS011;69435;52.670;13.544;2023-09-19T09:18:29;5.45;;;2.03;;
21334;SDS011;69435;52.670;13.544;2023-09-19T09:21:16;2.28;;;2.08;;
21334;SDS011;69435;52.670;13.544;2023-09-19T09:24:25;2.22;;;2.03;;
21334;SDS011;69435;52.670;13.544;2023-09-19T09:27:16;3.35;;;1.98;;
21334;SDS011;69435;52.670;13.544;2023-09-19T09:30:03;2.10;;;1.90;;
21334;SDS011;69435;52.670;13.544;2023-09-19T09:32:49;3.95;;;2.30;;
21334;SDS011;69435;52.670;13.544;2023-09-19T09:35:58;2.63;;;1.95;;
21334;SDS011;69435;52.670;13.544;2023-09-19T09:38:46;2.05;;;1.85;;
21334;SDS011;69435;52.670;13.544;2023-09-19T09:41:40;2.88;;;2.10;;
21334;SDS011;69435;52.670;13.544;2023-09-19T09:44:27;2.30;;;2.10;;
21334;SDS011;69435;52.670;13.544;2023-09-19T09:47:18;3.75;;;2.22;;
21334;SDS011;69435;52.670;13.544;2023-09-19T09:50:47;2.10;;;1.63;;
21334;SDS011;69435;52.670;13.544;2023-09-19T09:53:34;1.73;;;1.63;;
21334;SDS011;69435;52.670;13.544;2023-09-19T09:56:21;3.90;;;1.98;;
21334;SDS011;69435;52.670;13.544;2023-09-19T09:59:08;5.07;;;2.10;;
21334;SDS011;69435;52.670;13.544;2023-09-19T10:01:54;4.43;;;1.90;;
21334;SDS011;69435;52.670;13.544;2023-09-19T10:04:41;2.67;;;2.03;;
21334;SDS011;69435;52.670;13.544;2023-09-19T10:07:37;3.05;;;1.98;;
21334;SDS011;69435;52.670;13.544;2023-09-19T10:10:37;3.83;;;2.25;;
21334;SDS011;69435;52.670;13.544;2023-09-19T10:13:28;3.15;;;2.20;;
21334;SDS011;69435;52.670;13.544;2023-09-19T10:16:18;5.28;;;2.30;;
21334;SDS011;69435;52.670;13.544;2023-09-19T10:19:04;2.88;;;2.58;;
21334;SDS011;69435;52.670;13.544;2023-09-19T10:21:54;4.47;;;2.28;;
21334;SDS011;69435;52.670;13.544;2023-09-19T10:24:42;2.83;;;2.03;;
21334;SDS011;69435;52.670;13.544;2023-09-19T10:27:32;5.15;;;2.40;;
21334;SDS011;69435;52.670;13.544;2023-09-19T10:30:23;8.95;;;2.85;;
21334;SDS011;69435;52.670;13.544;2023-09-19T10:33:11;3.63;;;2.17;;
21334;SDS011;69435;52.670;13.544;2023-09-19T10:36:00;2.65;;;2.15;;
21334;SDS011;69435;52.670;13.544;2023-09-19T10:38:46;3.25;;;2.35;;
21334;SDS011;69435;52.670;13.544;2023-09-19T10:41:35;3.75;;;2.28;;
21334;SDS011;69435;52.670;13.544;2023-09-19T10:44:25;3.25;;;2.80;;
21334;SDS011;69435;52.670;13.544;2023-09-19T10:47:11;4.25;;;2.72;;
21334;SDS011;69435;52.670;13.544;2023-09-19T10:49:59;3.10;;;2.40;;
21334;SDS011;69435;52.670;13.544;2023-09-19T10:52:46;3.38;;;2.50;;
21334;SDS011;69435;52.670;13.544;2023-09-19T10:55:35;3.17;;;2.28;;
21334;SDS011;69435;52.670;13.544;2023-09-19T10:58:26;3.63;;;2.88;;
21334;SDS011;69435;52.670;13.544;2023-09-19T11:01:19;3.35;;;2.53;;
21334;SDS011;69435;52.670;13.544;2023-09-19T11:07:21;5.03;;;2.35;;
21334;SDS011;69435;52.670;13.544;2023-09-19T11:10:11;5.18;;;2.40;;
21334;SDS011;69435;52.670;13.544;2023-09-19T11:13:34;3.58;;;2.85;;
21334;SDS011;69435;52.670;13.544;2023-09-19T11:16:22;4.43;;;2.40;;
21334;SDS011;69435;52.670;13.544;2023-09-19T11:19:09;2.67;;;2.00;;
21334;SDS011;69435;52.670;13.544;2023-09-19T11:21:56;9.55;;;2.60;;
21334;SDS011;69435;52.670;13.544;2023-09-19T11:24:43;1.98;;;1.77;;
21334;SDS011;69435;52.670;13.544;2023-09-19T11:27:31;4.50;;;2.47;;
21334;SDS011;69435;52.670;13.544;2023-09-19T11:30:26;5.28;;;2.35;;
21334;SDS011;69435;52.670;13.544;2023-09-19T11:33:15;3.88;;;2.08;;
21334;SDS011;69435;52.670;13.544;2023-09-19T11:36:19;2.53;;;2.03;;
21334;SDS011;69435;52.670;13.544;2023-09-19T11:39:25;4.03;;;2.75;;
21334;SDS011;69435;52.670;13.544;2023-09-19T11:42:40;4.78;;;2.10;;
21334;SDS011;69435;52.670;13.544;2023-09-19T11:48:35;3.92;;;2.28;;
21334;SDS011;69435;52.670;13.544;2023-09-19T11:51:24;3.95;;;2.20;;
21334;SDS011;69435;52.670;13.544;2023-09-19T11:54:14;3.33;;;2.03;;
21334;SDS011;69435;52.670;13.544;2023-09-19T11:57:03;7.70;;;2.33;;
21334;SDS011;69435;52.670;13.544;2023-09-19T11:59:50;3.03;;;1.90;;
21334;SDS011;69435;52.670;13.544;2023-09-19T12:02:39;5.68;;;1.85;;
21334;SDS011;69435;52.670;13.544;2023-09-19T12:05:31;3.65;;;2.00;;
21334;SDS011;69435;52.670;13.544;2023-09-19T12:08:18;9.95;;;2.58;;
21334;SDS011;69435;52.670;13.544;2023-09-19T12:11:06;2.28;;;1.40;;
21334;SDS011;69435;52.670;13.544;2023-09-19T12:13:55;4.82;;;2.08;;
21334;SDS011;69435;52.670;13.544;2023-09-19T12:16:50;3.60;;;1.80;;
21334;SDS011;69435;52.670;13.544;2023-09-19T12:19:49;2.60;;;1.83;;
21334;SDS011;69435;52.670;13.544;2023-09-19T12:22:41;5.10;;;1.90;;
21334;SDS011;69435;52.670;13.544;2023-09-19T12:25:40;8.03;;;2.23;;
21334;SDS011;69435;52.670;13.544;2023-09-19T12:28:32;2.60;;;1.50;;
21334;SDS011;69435;52.670;13.544;2023-09-19T12:31:27;7.13;;;1.80;;
21334;SDS011;69435;52.670;13.544;2023-09-19T12:34:15;2.03;;;1.57;;
21334;SDS011;69435;52.670;13.544;2023-09-19T12:37:27;1.63;;;1.53;;
21334;SDS011;69435;52.670;13.544;2023-09-19T12:40:15;3.97;;;2.10;;
21334;SDS011;69435;52.670;13.544;2023-09-19T12:43:02;3.33;;;1.80;;
21334;SDS011;69435;52.670;13.544;2023-09-19T12:45:50;2.83;;;1.50;;
21334;SDS011;69435;52.670;13.544;2023-09-19T12:48:38;5.70;;;1.90;;
21334;SDS011;69435;52.670;13.544;2023-09-19T12:51:34;3.93;;;1.80;;
21334;SDS011;69435;52.670;13.544;2023-09-19T12:54:21;4.00;;;1.57;;
21334;SDS011;69435;52.670;13.544;2023-09-19T12:57:07;3.07;;;1.80;;
21334;SDS011;69435;52.670;13.544;2023-09-19T12:59:53;2.43;;;1.37;;
21334;SDS011;69435;52.670;13.544;2023-09-19T13:03:08;5.43;;;1.70;;
21334;SDS011;69435;52.670;13.544;2023-09-19T13:06:14;3.13;;;1.50;;
21334;SDS011;69435;52.670;13.544;2023-09-19T13:09:08;2.40;;;1.40;;
21334;SDS011;69435;52.670;13.544;2023-09-19T13:11:56;2.33;;;1.60;;
21334;SDS011;69435;52.670;13.544;2023-09-19T13:14:44;1.17;;;1.00;;
21334;SDS011;69435;52.670;13.544;2023-09-19T13:17:45;6.10;;;1.57;;
21334;SDS011;69435;52.670;13.544;2023-09-19T13:20:33;3.20;;;1.43;;
21334;SDS011;69435;52.670;13.544;2023-09-19T13:23:27;4.50;;;2.20;;
21334;SDS011;69435;52.670;13.544;2023-09-19T13:26:13;3.93;;;1.63;;
21334;SDS011;69435;52.670;13.544;2023-09-19T13:29:00;5.57;;;1.80;;
21334;SDS011;69435;52.670;13.544;2023-09-19T13:31:50;1.93;;;1.73;;
21334;SDS011;69435;52.670;13.544;2023-09-19T13:34:41;3.13;;;1.40;;
21334;SDS011;69435;52.670;13.544;2023-09-19T13:37:27;2.77;;;1.67;;
21334;SDS011;69435;52.670;13.544;2023-09-19T13:40:14;2.30;;;1.23;;
21334;SDS011;69435;52.670;13.544;2023-09-19T13:43:01;2.23;;;1.50;;
21334;SDS011;69435;52.670;13.544;2023-09-19T13:45:47;2.93;;;1.60;;
21334;SDS011;69435;52.670;13.544;2023-09-19T13:48:33;2.70;;;1.83;;
21334;SDS011;69435;52.670;13.544;2023-09-19T13:51:20;3.60;;;1.87;;
21334;SDS011;69435;52.670;13.544;2023-09-19T13:54:10;6.20;;;2.00;;
21334;SDS011;69435;52.670;13.544;2023-09-19T13:57:00;2.97;;;1.90;;
21334;SDS011;69435;52.670;13.544;2023-09-19T13:59:46;2.13;;;1.37;;
21334;SDS011;69435;52.670;13.544;2023-09-19T14:02:33;3.03;;;1.53;;
21334;SDS011;69435;52.670;13.544;2023-09-19T14:05:19;4.17;;;1.60;;
21334;SDS011;69435;52.670;13.544;2023-09-19T14:08:05;2.33;;;1.40;;
21334;SDS011;69435;52.670;13.544;2023-09-19T14:10:52;3.40;;;1.70;;
21334;SDS011;69435;52.670;13.544;2023-09-19T14:13:38;2.63;;;1.77;;
21334;SDS011;69435;52.670;13.544;2023-09-19T14:16:25;2.77;;;1.50;;
21334;SDS011;69435;52.670;13.544;2023-09-19T14:19:15;2.73;;;1.57;;
21334;SDS011;69435;52.670;13.544;2023-09-19T14:22:01;2.47;;;1.40;;
21334;SDS011;69435;52.670;13.544;2023-09-19T14:24:52;2.67;;;1.57;;
21334;SDS011;69435;52.670;13.544;2023-09-19T14:27:38;2.50;;;1.63;;
21334;SDS011;69435;52.670;13.544;2023-09-19T14:30:25;4.27;;;1.50;;
21334;SDS011;69435;52.670;13.544;2023-09-19T14:33:11;2.97;;;1.70;;
21334;SDS011;69435;52.670;13.544;2023-09-19T14:35:57;3.70;;;1.60;;
21334;SDS011;69435;52.670;13.544;2023-09-19T14:38:43;6.97;;;2.00;;
21334;SDS011;69435;52.670;13.544;2023-09-19T14:41:29;6.33;;;1.83;;
21334;SDS011;69435;52.670;13.544;2023-09-19T14:44:16;8.63;;;1.77;;
21334;SDS011;69435;52.670;13.544;2023-09-19T14:47:02;4.13;;;1.70;;
21334;SDS011;69435;52.670;13.544;2023-09-19T14:49:52;3.00;;;1.60;;
21334;SDS011;69435;52.670;13.544;2023-09-19T14:52:38;2.63;;;1.43;;
21334;SDS011;69435;52.670;13.544;2023-09-19T14:55:25;1.43;;;1.33;;
21334;SDS011;69435;52.670;13.544;2023-09-19T14:58:12;8.17;;;2.00;;
21334;SDS011;69435;52.670;13.544;2023-09-19T15:01:03;3.60;;;1.93;;
21334;SDS011;69435;52.670;13.544;2023-09-19T15:03:58;1.97;;;1.40;;
21334;SDS011;69435;52.670;13.544;2023-09-19T15:06:46;2.83;;;1.80;;
21334;SDS011;69435;52.670;13.544;2023-09-19T15:09:33;4.10;;;1.60;;
21334;SDS011;69435;52.670;13.544;2023-09-19T15:12:21;3.13;;;1.40;;
21334;SDS011;69435;52.670;13.544;2023-09-19T15:15:07;5.37;;;1.80;;
21334;SDS011;69435;52.670;13.544;2023-09-19T15:17:54;3.63;;;1.60;;
21334;SDS011;69435;52.670;13.544;2023-09-19T15:20:44;4.60;;;1.60;;
21334;SDS011;69435;52.670;13.544;2023-09-19T15:23:31;2.97;;;1.77;;
21334;SDS011;69435;52.670;13.544;2023-09-19T15:26:19;2.87;;;1.70;;
21334;SDS011;69435;52.670;13.544;2023-09-19T15:29:10;2.90;;;1.60;;
21334;SDS011;69435;52.670;13.544;2023-09-19T15:31:56;4.50;;;1.80;;
21334;SDS011;69435;52.670;13.544;2023-09-19T15:34:47;2.40;;;1.50;;
21334;SDS011;69435;52.670;13.544;2023-09-19T15:37:33;2.50;;;1.77;;
21334;SDS011;69435;52.670;13.544;2023-09-19T15:40:19;2.87;;;1.87;;
21334;SDS011;69435;52.670;13.544;2023-09-19T15:43:05;2.73;;;1.30;;
21334;SDS011;69435;52.670;13.544;2023-09-19T15:45:51;6.03;;;2.00;;
21334;SDS011;69435;52.670;13.544;2023-09-19T15:48:37;2.23;;;1.70;;
21334;SDS011;69435;52.670;13.544;2023-09-19T15:51:23;4.07;;;1.90;;
21334;SDS011;69435;52.670;13.544;2023-09-19T15:54:13;6.60;;;2.40;;
21334;SDS011;69435;52.670;13.544;2023-09-19T15:57:00;2.83;;;1.80;;
21334;SDS011;69435;52.670;13.544;2023-09-19T15:59:46;3.67;;;2.17;;
21334;SDS011;69435;52.670;13.544;2023-09-19T16:02:32;2.67;;;1.60;;
21334;SDS011;69435;52.670;13.544;2023-09-19T16:05:18;4.20;;;1.60;;
21334;SDS011;69435;52.670;13.544;2023-09-19T16:08:04;6.50;;;2.80;;
21334;SDS011;69435;52.670;13.544;2023-09-19T16:10:52;2.57;;;1.60;;
21334;SDS011;69435;52.670;13.544;2023-09-19T16:13:39;6.00;;;1.73;;
21334;SDS011;69435;52.670;13.544;2023-09-19T16:16:26;5.77;;;1.63;;
21334;SDS011;69435;52.670;13.544;2023-09-19T16:19:16;4.67;;;1.90;;
21334;SDS011;69435;52.670;13.544;2023-09-19T16:22:02;5.23;;;1.93;;
21334;SDS011;69435;52.670;13.544;2023-09-19T16:24:48;2.20;;;1.63;;
21334;SDS011;69435;52.670;13.544;2023-09-19T16:27:34;3.60;;;2.63;;
21334;SDS011;69435;52.670;13.544;2023-09-19T16:30:21;1.90;;;1.70;;
21334;SDS011;69435;52.670;13.544;2023-09-19T16:33:07;4.67;;;1.97;;
21334;SDS011;69435;52.670;13.544;2023-09-19T16:35:53;9.17;;;2.10;;
21334;SDS011;69435;52.670;13.544;2023-09-19T16:38:39;2.53;;;1.60;;
21334;SDS011;69435;52.670;13.544;2023-09-19T16:41:27;2.70;;;1.57;;
21334;SDS011;69435;52.670;13.544;2023-09-19T16:44:13;6.70;;;2.03;;
21334;SDS011;69435;52.670;13.544;2023-09-19T16:46:59;5.53;;;2.23;;
21334;SDS011;69435;52.670;13.544;2023-09-19T16:49:48;2.90;;;1.93;;
21334;SDS011;69435;52.670;13.544;2023-09-19T16:52:34;2.27;;;1.70;;
21334;SDS011;69435;52.670;13.544;2023-09-19T16:55:20;4.47;;;2.10;;
21334;SDS011;69435;52.670;13.544;2023-09-19T16:58:06;4.63;;;2.00;;
21334;SDS011;69435;52.670;13.544;2023-09-19T17:00:52;4.83;;;1.90;;